sensor_id;sensor_type;location;lat;lon;timestamp;P1;durP1;ratioP1;P2;durP2;ratioP2
66870;SDS011;53780;44.998;9.926;2022-10-03T16:16:58;12.07;;;6.27;;
66870;SDS011;53780;44.998;9.926;2022-10-03T16:20:19;13.23;;;6.40;;
66870;SDS011;53780;44.998;9.926;2022-10-03T16:23:27;13.43;;;6.40;;
66870;SDS011;53780;44.998;9.926;2022-10-03T16:26:54;13.43;;;6.82;;
66870;SDS011;53780;44.998;9.926;2022-10-03T16:33:19;17.40;;;8.23;;
66870;SDS011;53780;44.998;9.926;2022-10-03T16:36:30;14.57;;;8.40;;
66870;SDS011;53780;44.998;9.926;2022-10-03T16:39:42;15.55;;;7.53;;
66870;SDS011;53780;44.998;9.926;2022-10-03T16:42:55;16.55;;;8.48;;
66870;SDS011;53780;44.998;9.926;2022-10-03T16:46:08;17.40;;;8.75;;
66870;SDS011;53780;44.998;9.926;2022-10-03T16:52:47;17.02;;;9.23;;
66870;SDS011;53780;44.998;9.926;2022-10-03T16:56:04;17.17;;;8.57;;
66870;SDS011;53780;44.998;9.926;2022-10-03T16:59:11;15.15;;;8.40;;
66870;SDS011;53780;44.998;9.926;2022-10-03T17:02:20;15.32;;;8.23;;
66870;SDS011;53780;44.998;9.926;2022-10-03T17:05:27;14.57;;;7.70;;
66870;SDS011;53780;44.998;9.926;2022-10-03T17:08:40;17.05;;;8.98;;
66870;SDS011;53780;44.998;9.926;2022-10-03T17:12:01;15.98;;;8.88;;
66870;SDS011;53780;44.998;9.926;2022-10-03T17:15:15;18.45;;;9.95;;
66870;SDS011;53780;44.998;9.926;2022-10-03T17:18:27;17.88;;;9.15;;
66870;SDS011;53780;44.998;9.926;2022-10-03T17:21:50;16.70;;;8.00;;
66870;SDS011;53780;44.998;9.926;2022-10-03T17:25:04;17.10;;;8.10;;
66870;SDS011;53780;44.998;9.926;2022-10-03T17:28:35;14.60;;;8.15;;
66870;SDS011;53780;44.998;9.926;2022-10-03T17:31:59;15.90;;;8.43;;
66870;SDS011;53780;44.998;9.926;2022-10-03T17:35:17;17.25;;;8.50;;
66870;SDS011;53780;44.998;9.926;2022-10-03T17:45:43;21.05;;;10.60;;
66870;SDS011;53780;44.998;9.926;2022-10-03T17:49:02;19.42;;;10.32;;
66870;SDS011;53780;44.998;9.926;2022-10-03T17:52:20;23.48;;;10.60;;
66870;SDS011;53780;44.998;9.926;2022-10-03T17:55:28;20.07;;;9.93;;
66870;SDS011;53780;44.998;9.926;2022-10-03T17:58:36;20.70;;;10.02;;
66870;SDS011;53780;44.998;9.926;2022-10-03T18:01:48;17.48;;;9.85;;
66870;SDS011;53780;44.998;9.926;2022-10-03T18:04:58;18.92;;;10.00;;
66870;SDS011;53780;44.998;9.926;2022-10-03T18:08:28;18.60;;;9.57;;
66870;SDS011;53780;44.998;9.926;2022-10-03T18:11:34;17.33;;;9.43;;
66870;SDS011;53780;44.998;9.926;2022-10-03T18:21:52;22.05;;;10.27;;
66870;SDS011;53780;44.998;9.926;2022-10-03T18:32:01;19.38;;;10.65;;
66870;SDS011;53780;44.998;9.926;2022-10-03T18:38:26;19.38;;;10.10;;
66870;SDS011;53780;44.998;9.926;2022-10-03T18:41:32;16.48;;;9.68;;
66870;SDS011;53780;44.998;9.926;2022-10-03T18:44:37;18.27;;;9.00;;
66870;SDS011;53780;44.998;9.926;2022-10-03T18:47:49;16.17;;;9.68;;
66870;SDS011;53780;44.998;9.926;2022-10-03T18:51:07;18.50;;;9.82;;
66870;SDS011;53780;44.998;9.926;2022-10-03T18:54:27;18.85;;;11.10;;
66870;SDS011;53780;44.998;9.926;2022-10-03T18:57:37;19.98;;;11.50;;
66870;SDS011;53780;44.998;9.926;2022-10-03T19:00:49;20.90;;;12.43;;
66870;SDS011;53780;44.998;9.926;2022-10-03T19:07:30;24.05;;;13.98;;
66870;SDS011;53780;44.998;9.926;2022-10-03T19:10:43;26.00;;;13.65;;
66870;SDS011;53780;44.998;9.926;2022-10-03T19:13:57;25.85;;;12.73;;
66870;SDS011;53780;44.998;9.926;2022-10-03T19:20:28;24.42;;;13.05;;
66870;SDS011;53780;44.998;9.926;2022-10-03T19:23:37;22.85;;;12.27;;
66870;SDS011;53780;44.998;9.926;2022-10-03T19:26:45;24.50;;;13.15;;
66870;SDS011;53780;44.998;9.926;2022-10-03T19:30:04;24.00;;;13.13;;
66870;SDS011;53780;44.998;9.926;2022-10-03T19:33:19;25.30;;;13.87;;
66870;SDS011;53780;44.998;9.926;2022-10-03T19:36:29;24.38;;;13.55;;
66870;SDS011;53780;44.998;9.926;2022-10-03T19:39:35;22.40;;;13.55;;
66870;SDS011;53780;44.998;9.926;2022-10-03T19:42:42;26.30;;;14.88;;
66870;SDS011;53780;44.998;9.926;2022-10-03T19:46:40;23.35;;;13.70;;
66870;SDS011;53780;44.998;9.926;2022-10-03T19:52:42;25.75;;;14.60;;
66870;SDS011;53780;44.998;9.926;2022-10-03T19:55:46;25.13;;;15.07;;
66870;SDS011;53780;44.998;9.926;2022-10-03T19:58:58;24.35;;;14.00;;
66870;SDS011;53780;44.998;9.926;2022-10-03T20:02:06;28.48;;;14.60;;
66870;SDS011;53780;44.998;9.926;2022-10-03T20:05:16;24.63;;;14.10;;
66870;SDS011;53780;44.998;9.926;2022-10-03T20:08:29;24.67;;;13.82;;
66870;SDS011;53780;44.998;9.926;2022-10-03T20:14:49;25.35;;;14.23;;
66870;SDS011;53780;44.998;9.926;2022-10-03T20:17:58;20.70;;;12.73;;
66870;SDS011;53780;44.998;9.926;2022-10-03T20:21:07;22.37;;;12.60;;
66870;SDS011;53780;44.998;9.926;2022-10-03T20:24:18;23.48;;;13.07;;
66870;SDS011;53780;44.998;9.926;2022-10-03T20:27:40;25.35;;;14.43;;
66870;SDS011;53780;44.998;9.926;2022-10-03T20:30:49;25.67;;;14.60;;
66870;SDS011;53780;44.998;9.926;2022-10-03T20:33:55;23.58;;;13.88;;
66870;SDS011;53780;44.998;9.926;2022-10-03T20:37:22;24.27;;;14.53;;
66870;SDS011;53780;44.998;9.926;2022-10-03T20:44:12;28.40;;;14.90;;
66870;SDS011;53780;44.998;9.926;2022-10-03T20:51:04;27.33;;;15.40;;
66870;SDS011;53780;44.998;9.926;2022-10-03T20:54:10;26.67;;;15.20;;
66870;SDS011;53780;44.998;9.926;2022-10-03T21:00:29;27.17;;;15.20;;
66870;SDS011;53780;44.998;9.926;2022-10-03T21:03:40;27.23;;;14.98;;
66870;SDS011;53780;44.998;9.926;2022-10-03T21:10:31;24.57;;;13.63;;
66870;SDS011;53780;44.998;9.926;2022-10-03T21:13:45;29.60;;;15.23;;
66870;SDS011;53780;44.998;9.926;2022-10-03T21:17:01;28.77;;;14.93;;
66870;SDS011;53780;44.998;9.926;2022-10-03T21:20:08;27.52;;;14.48;;
66870;SDS011;53780;44.998;9.926;2022-10-03T21:23:22;24.40;;;13.65;;
66870;SDS011;53780;44.998;9.926;2022-10-03T21:26:29;25.10;;;13.47;;
66870;SDS011;53780;44.998;9.926;2022-10-03T21:29:36;26.55;;;13.65;;
66870;SDS011;53780;44.998;9.926;2022-10-03T21:36:17;25.10;;;14.63;;
66870;SDS011;53780;44.998;9.926;2022-10-03T21:39:32;26.63;;;15.32;;
66870;SDS011;53780;44.998;9.926;2022-10-03T21:49:56;27.02;;;14.55;;
66870;SDS011;53780;44.998;9.926;2022-10-03T21:53:07;26.40;;;14.05;;
66870;SDS011;53780;44.998;9.926;2022-10-03T21:57:04;25.33;;;13.80;;
66870;SDS011;53780;44.998;9.926;2022-10-03T22:00:13;22.27;;;12.73;;
66870;SDS011;53780;44.998;9.926;2022-10-03T22:03:22;27.17;;;13.77;;
66870;SDS011;53780;44.998;9.926;2022-10-03T22:07:17;23.50;;;13.02;;
66870;SDS011;53780;44.998;9.926;2022-10-03T22:10:18;27.10;;;14.85;;
66870;SDS011;53780;44.998;9.926;2022-10-03T22:13:27;27.17;;;15.10;;
66870;SDS011;53780;44.998;9.926;2022-10-03T22:19:50;27.77;;;15.45;;
66870;SDS011;53780;44.998;9.926;2022-10-03T22:26:22;30.80;;;15.90;;
66870;SDS011;53780;44.998;9.926;2022-10-03T22:29:44;31.25;;;17.65;;
66870;SDS011;53780;44.998;9.926;2022-10-03T22:36:20;31.08;;;18.08;;
66870;SDS011;53780;44.998;9.926;2022-10-03T22:39:24;37.60;;;20.42;;
66870;SDS011;53780;44.998;9.926;2022-10-03T22:42:29;36.60;;;19.70;;
66870;SDS011;53780;44.998;9.926;2022-10-03T22:45:43;39.28;;;21.02;;
66870;SDS011;53780;44.998;9.926;2022-10-03T22:48:53;39.23;;;22.43;;
66870;SDS011;53780;44.998;9.926;2022-10-03T22:52:04;36.75;;;21.35;;
66870;SDS011;53780;44.998;9.926;2022-10-03T22:55:14;36.15;;;20.05;;
66870;SDS011;53780;44.998;9.926;2022-10-03T22:58:20;32.75;;;19.00;;
66870;SDS011;53780;44.998;9.926;2022-10-03T23:01:26;30.73;;;16.77;;
66870;SDS011;53780;44.998;9.926;2022-10-03T23:04:48;28.20;;;16.20;;
66870;SDS011;53780;44.998;9.926;2022-10-03T23:07:59;30.85;;;16.00;;
66870;SDS011;53780;44.998;9.926;2022-10-03T23:11:29;24.42;;;14.57;;
66870;SDS011;53780;44.998;9.926;2022-10-03T23:14:34;27.58;;;14.73;;
66870;SDS011;53780;44.998;9.926;2022-10-03T23:24:12;24.75;;;13.40;;
66870;SDS011;53780;44.998;9.926;2022-10-03T23:31:06;24.75;;;11.98;;
66870;SDS011;53780;44.998;9.926;2022-10-03T23:34:10;22.25;;;11.57;;
66870;SDS011;53780;44.998;9.926;2022-10-03T23:40:19;26.73;;;12.68;;
66870;SDS011;53780;44.998;9.926;2022-10-03T23:43:37;19.30;;;10.40;;
66870;SDS011;53780;44.998;9.926;2022-10-03T23:46:42;22.15;;;12.10;;
66870;SDS011;53780;44.998;9.926;2022-10-03T23:49:47;21.75;;;11.95;;
66870;SDS011;53780;44.998;9.926;2022-10-03T23:52:56;23.93;;;12.47;;
66870;SDS011;53780;44.998;9.926;2022-10-03T23:56:02;24.30;;;12.45;;
